Time;durP1;ratioP1;P1;durP2;ratioP2;P2;SDS_P1;SDS_P2;PMS_P1;PMS_P2;Temp;Humidity;BMP_temperature;BMP_pressure;BME280_temperature;BME280_humidity;BME280_pressure;Samples;Min_cycle;Max_cycle;Signal;HPM_P1;HPM_P2
2022/04/20 00:00:19;;;;;;;5.97;5.38;;;;;;;7.40;100.00;162500.63;5031970;28;20115;-57
2022/04/20 00:02:45;;;;;;;4.93;3.33;;;;;;;7.37;100.00;162492.50;5031139;28;20048;-57
2022/04/20 00:05:10;;;;;;;4.30;3.58;;;;;;;7.34;100.00;162484.47;5032231;28;20033;-57
2022/04/20 00:07:35;;;;;;;5.43;4.55;;;;;;;7.29;100.00;162471.00;5030273;28;20037;-57
2022/04/20 00:10:01;;;;;;;5.15;4.68;;;;;;;7.29;100.00;162471.00;5032619;28;20021;-57
2022/04/20 00:12:26;;;;;;;10.00;4.47;;;;;;;7.27;100.00;162466.94;5030469;28;20042;-57
2022/04/20 00:14:52;;;;;;;4.80;4.25;;;;;;;7.23;100.00;162456.19;5032426;28;20017;-57
2022/04/20 00:17:17;;;;;;;4.55;3.88;;;;;;;7.27;100.00;162466.94;5030585;28;20045;-57
2022/04/20 00:19:43;;;;;;;6.20;4.53;;;;;;;7.25;100.00;162460.22;5031657;28;20033;-57
2022/04/20 00:22:08;;;;;;;5.35;4.00;;;;;;;7.17;100.00;162440.03;5030940;28;20409;-57
2022/04/20 00:24:33;;;;;;;4.32;3.88;;;;;;;7.18;100.00;162442.72;5031922;28;20392;-57
2022/04/20 00:26:59;;;;;;;4.57;4.20;;;;;;;7.15;100.00;162434.63;5030428;28;20057;-57
2022/04/20 00:29:24;;;;;;;5.72;4.72;;;;;;;7.12;100.00;162426.53;5032213;28;20185;-57
2022/04/20 00:31:50;;;;;;;6.03;4.00;;;;;;;7.05;100.00;162409.03;5030751;28;20041;-57
2022/04/20 00:34:16;;;;;;;8.60;3.40;;;;;;;7.04;100.00;162404.97;5031663;28;20029;-57
2022/04/20 00:36:41;;;;;;;4.57;4.15;;;;;;;7.00;100.00;162395.53;5030405;28;20041;-57
2022/04/20 00:39:06;;;;;;;5.00;4.25;;;;;;;7.02;100.00;162399.63;5031756;28;20469;-57
2022/04/20 00:41:32;;;;;;;6.93;4.03;;;;;;;6.98;100.00;162391.53;5029712;28;20087;-57
2022/04/20 00:43:59;;;;;;;5.07;4.63;;;;;;;6.97;100.00;162388.81;5031739;28;20067;-57
2022/04/20 00:46:26;;;;;;;5.68;5.18;;;;;;;6.96;100.00;162386.13;5030284;28;20049;-57
2022/04/20 00:48:52;;;;;;;4.40;3.60;;;;;;;6.92;100.00;162375.38;5031236;28;20036;-57
2022/04/20 00:51:18;;;;;;;5.55;4.07;;;;;;;6.91;100.00;162372.66;5029751;28;20374;-57
2022/04/20 00:53:43;;;;;;;3.40;3.10;;;;;;;6.89;100.00;162367.28;5031846;28;20112;-57
2022/04/20 00:56:09;;;;;;;5.63;3.60;;;;;;;6.83;100.00;162352.50;5029913;28;20045;-56
2022/04/20 00:58:37;;;;;;;4.20;3.90;;;;;;;6.82;100.00;162349.78;5031462;28;20040;-57
2022/04/20 01:01:03;;;;;;;8.73;3.65;;;;;;;6.77;100.00;162334.97;5030024;28;20045;-57
2022/04/20 01:03:29;;;;;;;7.63;5.82;;;;;;;6.70;100.00;162316.13;5030933;28;20406;-56
2022/04/20 01:05:54;;;;;;;4.15;3.53;;;;;;;6.69;100.00;162313.44;5029693;28;20032;-56
2022/04/20 01:08:19;;;;;;;4.82;3.78;;;;;;;6.64;100.00;162302.69;5031276;28;20025;-57
2022/04/20 01:10:44;;;;;;;4.35;3.83;;;;;;;6.60;100.00;162291.88;5029778;28;20477;-57
2022/04/20 01:13:10;;;;;;;4.40;3.78;;;;;;;6.57;100.00;162283.81;5031575;28;20052;-56
2022/04/20 01:15:35;;;;;;;3.83;3.53;;;;;;;6.56;100.00;162279.75;5030445;28;20027;-56
2022/04/20 01:18:10;;;;;;;5.40;4.18;;;;;;;6.57;100.00;162283.81;5030952;28;20079;-57
2022/04/20 01:20:35;;;;;;;6.78;3.53;;;;;;;6.58;100.00;162286.53;5030299;28;20064;-57
2022/04/20 01:23:01;;;;;;;3.58;3.28;;;;;;;6.60;100.00;162290.56;5009730;28;21428;-57
2022/04/20 01:25:26;;;;;;;5.22;4.00;;;;;;;6.64;100.00;162302.69;5010964;28;20022;-57
2022/04/20 01:27:51;;;;;;;5.50;4.43;;;;;;;6.62;100.00;162297.28;5010264;28;20038;-57
2022/04/20 01:30:17;;;;;;;7.35;4.40;;;;;;;6.63;100.00;162299.97;5011417;28;20532;-56
2022/04/20 01:32:42;;;;;;;6.38;4.85;;;;;;;6.57;100.00;162282.44;5009376;28;20503;-57
2022/04/20 01:35:08;;;;;;;6.15;3.50;;;;;;;6.51;100.00;162269.00;5011426;28;20048;-57
2022/04/20 01:37:34;;;;;;;5.55;4.38;;;;;;;6.46;100.00;162255.56;5009622;28;20108;-57
2022/04/20 01:39:59;;;;;;;4.32;3.63;;;;;;;6.42;100.00;162243.44;5010680;28;20022;-57
2022/04/20 01:42:25;;;;;;;5.63;4.38;;;;;;;6.35;100.00;162227.28;5009768;28;20053;-56
2022/04/20 01:44:50;;;;;;;6.30;3.92;;;;;;;6.33;100.00;162221.91;5010986;28;20032;-57
2022/04/20 01:47:16;;;;;;;3.80;3.50;;;;;;;6.33;100.00;162220.53;5008970;28;20038;-57
2022/04/20 01:49:41;;;;;;;4.43;3.92;;;;;;;6.27;100.00;162205.75;5011262;28;20092;-57
2022/04/20 01:52:07;;;;;;;4.57;3.58;;;;;;;6.24;100.00;162197.66;5009949;28;20049;-57
2022/04/20 01:54:32;;;;;;;5.20;3.55;;;;;;;6.19;100.00;162184.22;5010805;28;20482;-59
2022/04/20 01:56:58;;;;;;;4.43;4.03;;;;;;;6.22;100.00;162192.25;5009440;28;20046;-59
2022/04/20 01:59:23;;;;;;;9.15;5.72;;;;;;;6.19;100.00;162184.22;5011007;28;20030;-59
2022/04/20 02:04:32;;;;;;;5.43;4.63;;;;;;;6.05;100.00;162146.53;5010839;28;20429;-57
2022/04/20 02:06:58;;;;;;;9.20;5.32;;;;;;;5.97;100.00;162127.63;5009642;28;20038;-57
2022/04/20 02:09:24;;;;;;;4.85;4.40;;;;;;;5.89;100.00;162106.09;5010610;28;20030;-57
2022/04/20 02:11:49;;;;;;;3.92;3.63;;;;;;;5.74;100.00;162065.72;5009560;28;20544;-57
2022/04/20 02:14:15;;;;;;;7.82;4.20;;;;;;;5.72;100.00;162063.03;5011037;28;20069;-57
2022/04/20 02:16:40;;;;;;;3.63;3.30;;;;;;;5.71;100.00;162059.00;5008921;28;20041;-57
2022/04/20 02:19:05;;;;;;;4.35;3.90;;;;;;;5.69;100.00;162055.00;5011072;28;20040;-59
2022/04/20 02:21:31;;;;;;;10.73;5.25;;;;;;;5.66;100.00;162046.91;5009424;28;20057;-57
2022/04/20 02:23:56;;;;;;;3.80;3.33;;;;;;;5.65;100.00;162044.19;5010714;28;20424;-59
2022/04/20 02:26:21;;;;;;;4.20;3.80;;;;;;;5.61;100.00;162033.47;5008856;28;20112;-57
2022/04/20 02:28:47;;;;;;;5.38;4.03;;;;;;;5.59;100.00;162028.06;5010848;28;20497;-59
2022/04/20 02:31:12;;;;;;;4.95;4.38;;;;;;;5.55;100.00;162017.28;5010250;28;20041;-59
2022/04/20 02:33:37;;;;;;;5.32;4.40;;;;;;;5.51;100.00;162006.53;5014652;28;20093;-57
2022/04/20 02:36:03;;;;;;;12.63;4.03;;;;;;;5.50;100.00;162003.81;5013243;28;20413;-56
2022/04/20 02:38:29;;;;;;;4.43;4.00;;;;;;;5.50;100.00;162005.19;5013780;28;20030;-57
2022/04/20 02:40:55;;;;;;;4.45;4.03;;;;;;;5.48;100.00;161998.44;5012966;28;20071;-57
2022/04/20 02:43:20;;;;;;;6.35;5.13;;;;;;;5.47;100.00;161995.78;5014052;28;20380;-57
2022/04/20 02:45:46;;;;;;;6.15;3.90;;;;;;;5.47;100.00;161995.78;5012114;28;20033;-57
2022/04/20 02:48:11;;;;;;;8.60;3.97;;;;;;;5.47;100.00;161997.13;5013104;28;20006;-56
2022/04/20 02:50:37;;;;;;;12.38;7.72;;;;;;;5.47;100.00;161997.13;5012351;28;20631;-56
2022/04/20 02:53:02;;;;;;;4.85;4.22;;;;;;;5.49;100.00;162001.13;5012785;28;20022;-57
2022/04/20 02:55:28;;;;;;;4.30;3.90;;;;;;;5.48;100.00;161998.44;5013276;28;20044;-57
2022/04/20 02:57:53;;;;;;;7.57;3.88;;;;;;;5.46;100.00;161994.41;5012066;28;20045;-57
2022/04/20 03:00:19;;;;;;;7.38;4.10;;;;;;;5.46;100.00;161993.09;5013263;28;20038;-57
2022/04/20 03:02:44;;;;;;;3.65;3.35;;;;;;;5.44;100.00;161987.69;5011687;28;20485;-59
2022/04/20 03:05:09;;;;;;;4.00;3.70;;;;;;;5.44;100.00;161989.03;5013327;28;20445;-58
2022/04/20 03:07:35;;;;;;;3.45;3.15;;;;;;;5.48;100.00;161998.44;5011004;28;20112;-58
2022/04/20 03:10:01;;;;;;;6.43;3.72;;;;;;;5.49;100.00;162001.13;5013070;28;20423;-59
2022/04/20 03:12:27;;;;;;;7.15;4.72;;;;;;;5.49;100.00;162001.13;5011594;28;20046;-59
2022/04/20 03:14:54;;;;;;;6.45;3.60;;;;;;;5.48;100.00;161998.44;5013402;28;20063;-59
2022/04/20 03:17:23;;;;;;;3.47;3.17;;;;;;;5.49;100.00;162001.13;5011142;28;20030;-57
2022/04/20 03:19:48;;;;;;;4.15;3.75;;;;;;;5.48;100.00;161998.44;5013583;28;20656;-57
2022/04/20 03:22:14;;;;;;;3.58;3.28;;;;;;;5.46;100.00;161994.41;5010862;28;20049;-56
2022/04/20 03:24:39;;;;;;;4.10;3.70;;;;;;;5.50;100.00;162003.81;5012417;28;20469;-59
2022/04/20 03:27:05;;;;;;;4.65;3.63;;;;;;;5.53;100.00;162011.94;5006120;28;20077;-57
2022/04/20 03:29:30;;;;;;;4.13;3.63;;;;;;;5.52;100.00;162009.22;5001998;28;20496;-57
2022/04/20 03:31:56;;;;;;;6.22;3.05;;;;;;;5.46;100.00;161993.09;5013225;28;20033;-59
2022/04/20 03:34:21;;;;;;;4.18;3.53;;;;;;;5.47;100.00;161997.13;5022163;28;20029;-59
2022/04/20 03:36:47;;;;;;;3.78;3.47;;;;;;;5.43;100.00;161985.00;5023548;28;20037;-58
2022/04/20 03:39:13;;;;;;;3.60;3.30;;;;;;;5.39;100.00;161976.97;5023283;28;20071;-59
2022/04/20 03:41:38;;;;;;;5.55;3.42;;;;;;;5.39;100.00;161976.97;5020646;28;20042;-59
2022/04/20 03:44:03;;;;;;;4.30;3.90;;;;;;;5.44;100.00;161987.69;5021764;28;20017;-59
2022/04/20 03:46:29;;;;;;;5.72;4.22;;;;;;;5.44;100.00;161987.69;5020904;28;20528;-59
2022/04/20 03:48:54;;;;;;;5.45;3.88;;;;;;;5.43;100.00;161985.00;5024224;28;20013;-56
2022/04/20 03:51:20;;;;;;;3.45;3.17;;;;;;;5.43;100.00;161985.00;5022690;28;20046;-58
2022/04/20 03:53:45;;;;;;;5.88;3.10;;;;;;;5.42;100.00;161982.31;5022173;28;20071;-59
2022/04/20 03:56:10;;;;;;;4.28;3.92;;;;;;;5.42;100.00;161982.31;5022014;28;20405;-57
2022/04/20 03:58:36;;;;;;;4.60;3.63;;;;;;;5.38;100.00;161974.25;5021007;28;20033;-57
2022/04/20 04:01:02;;;;;;;6.70;3.38;;;;;;;5.36;100.00;161968.88;5020551;28;20038;-57
2022/04/20 04:03:27;;;;;;;5.00;3.45;;;;;;;5.30;100.00;161952.72;5022500;28;20070;-56
2022/04/20 04:05:53;;;;;;;6.35;3.60;;;;;;;5.31;100.00;161955.44;5021322;28;20038;-59
2022/04/20 04:08:18;;;;;;;4.38;3.97;;;;;;;5.29;100.00;161950.03;5023323;28;20018;-56
2022/04/20 04:10:44;;;;;;;3.30;3.05;;;;;;;5.29;100.00;161948.72;5020375;28;20110;-56
2022/04/20 04:13:09;;;;;;;3.92;3.55;;;;;;;5.32;100.00;161958.13;5022344;28;20095;-56
2022/04/20 04:15:35;;;;;;;5.05;4.47;;;;;;;5.30;100.00;161952.72;5022270;28;20041;-57
2022/04/20 04:18:01;;;;;;;4.68;4.28;;;;;;;5.29;100.00;161950.03;5020182;28;20034;-58
2022/04/20 04:20:27;;;;;;;10.88;4.75;;;;;;;5.22;100.00;161931.19;5025210;28;20350;-56
2022/04/20 04:22:54;;;;;;;5.75;4.53;;;;;;;5.26;100.00;161941.94;5023367;28;20337;-55
2022/04/20 04:25:19;;;;;;;5.97;3.45;;;;;;;5.25;100.00;161939.25;5022045;28;20036;-58
2022/04/20 04:27:45;;;;;;;4.43;3.83;;;;;;;5.20;100.00;161925.81;5020438;28;20502;-58
2022/04/20 04:30:11;;;;;;;7.72;4.35;;;;;;;5.18;100.00;161920.41;5026308;28;20477;-58
2022/04/20 04:32:36;;;;;;;7.63;3.83;;;;;;;5.17;100.00;161917.78;5019005;28;20081;-56
2022/04/20 04:35:02;;;;;;;4.80;3.95;;;;;;;5.18;100.00;161920.41;5021948;28;20017;-55
2022/04/20 04:37:27;;;;;;;3.70;3.35;;;;;;;5.13;100.00;161908.34;5026921;28;20061;-56
2022/04/20 04:39:53;;;;;;;4.85;4.47;;;;;;;5.13;100.00;161908.34;5023105;28;20079;-55
2022/04/20 04:42:19;;;;;;;6.38;4.75;;;;;;;5.11;100.00;161901.59;5019504;28;20041;-56
2022/04/20 04:44:44;;;;;;;3.53;3.30;;;;;;;5.09;100.00;161897.56;5021031;28;20022;-58
2022/04/20 04:49:54;;;;;;;9.43;5.45;;;;;;;5.13;100.00;161906.97;5022828;28;20079;-58
2022/04/20 04:52:19;;;;;;;4.20;3.80;;;;;;;5.10;100.00;161898.94;5018798;28;20046;-56
2022/04/20 04:54:45;;;;;;;6.07;4.43;;;;;;;5.11;100.00;161901.59;5020994;28;20056;-55
2022/04/20 04:57:12;;;;;;;3.78;3.47;;;;;;;5.13;100.00;161906.97;5029349;28;20041;-57
2022/04/20 04:59:38;;;;;;;7.80;4.43;;;;;;;5.14;100.00;161909.69;5031138;28;20079;-55
2022/04/20 05:02:04;;;;;;;5.93;3.33;;;;;;;5.18;100.00;161920.41;5030170;28;20049;-56
2022/04/20 05:04:30;;;;;;;6.82;4.80;;;;;;;5.19;100.00;161923.13;5031475;28;20036;-57
2022/04/20 05:06:56;;;;;;;4.55;4.15;;;;;;;5.22;100.00;161931.19;5029937;28;20037;-55
2022/04/20 05:09:22;;;;;;;4.50;3.65;;;;;;;5.28;100.00;161946.00;5031406;28;20439;-57
2022/04/20 05:11:48;;;;;;;6.75;4.07;;;;;;;5.35;100.00;161966.16;5030100;28;20037;-57
2022/04/20 05:14:17;;;;;;;4.93;4.15;;;;;;;5.32;100.00;161958.13;5030992;28;20033;-57
2022/04/20 05:16:43;;;;;;;6.50;4.18;;;;;;;5.45;100.00;161990.41;5029880;28;20040;-56
2022/04/20 05:19:09;;;;;;;8.27;4.18;;;;;;;5.52;100.00;162009.22;5031356;28;20029;-56
2022/04/20 05:21:34;;;;;;;8.77;3.75;;;;;;;5.57;100.00;162022.66;5029621;28;20061;-56
2022/04/20 05:24:00;;;;;;;5.75;3.75;;;;;;;5.64;100.00;162041.50;5031568;28;20037;-56
2022/04/20 05:26:25;;;;;;;8.23;4.97;;;;;;;5.71;100.00;162060.34;5029555;28;20040;-56
2022/04/20 05:28:54;;;;;;;11.75;4.20;;;;;;;5.78;100.00;162076.47;5030817;28;20472;-56
2022/04/20 05:31:20;;;;;;;6.40;4.60;;;;;;;5.76;100.00;162071.13;5029478;28;20057;-58
2022/04/20 05:33:45;;;;;;;6.97;5.45;;;;;;;5.91;100.00;162111.50;5031525;28;20112;-56
2022/04/20 05:36:11;;;;;;;5.47;4.10;;;;;;;5.99;100.00;162133.09;5029247;28;20163;-56
2022/04/20 05:43:52;;;;;;;5.63;4.65;;;;;;;6.20;100.00;162186.91;5019315;28;20521;-56
2022/04/20 05:46:18;;;;;;;5.05;3.70;;;;;;;6.28;100.00;162208.44;5019478;28;20034;-56
2022/04/20 05:48:43;;;;;;;5.22;3.47;;;;;;;6.33;100.00;162221.91;5020664;28;20515;-56
2022/04/20 05:51:09;;;;;;;6.07;4.43;;;;;;;6.49;100.00;162262.28;5018132;28;20041;-56
2022/04/20 05:53:35;;;;;;;4.95;4.43;;;;;;;6.59;100.00;162287.84;5021273;28;20435;-54
2022/04/20 05:56:00;;;;;;;6.45;4.10;;;;;;;6.67;100.00;162310.72;5018779;28;20033;-54
2022/04/20 05:58:25;;;;;;;5.05;4.45;;;;;;;6.77;100.00;162334.97;5019779;28;20485;-54
2022/04/20 06:00:51;;;;;;;7.18;4.20;;;;;;;6.84;100.00;162353.81;5019906;28;20386;-54
2022/04/20 06:03:16;;;;;;;7.47;6.03;;;;;;;6.92;100.00;162375.38;5019736;28;20021;-53
2022/04/20 06:05:41;;;;;;;5.60;4.93;;;;;;;7.00;100.00;162395.53;5018884;28;20381;-52
2022/04/20 06:08:07;;;;;;;7.30;4.82;;;;;;;7.09;100.00;162419.81;5024712;28;20040;-52
2022/04/20 06:10:33;;;;;;;5.63;4.45;;;;;;;7.16;100.00;162437.31;5019579;28;20033;-52
2022/04/20 06:12:59;;;;;;;8.27;5.13;;;;;;;7.23;100.00;162456.19;5013067;28;20038;-53
2022/04/20 06:15:24;;;;;;;6.15;3.80;;;;;;;7.34;100.00;162483.09;5014476;28;20044;-52
2022/04/20 06:17:49;;;;;;;8.35;3.97;;;;;;;7.44;100.00;162510.06;5013213;28;20053;-53
2022/04/20 06:20:15;;;;;;;4.82;4.38;;;;;;;7.55;100.00;162539.72;5015032;28;20029;-53
2022/04/20 06:22:40;;;;;;;4.75;4.35;;;;;;;7.63;100.00;162561.22;5012619;28;20038;-53
2022/04/20 06:25:06;;;;;;;4.38;3.83;;;;;;;7.73;100.00;162585.47;5013566;28;20033;-52
2022/04/20 06:27:32;;;;;;;8.18;4.47;;;;;;;7.85;100.00;162617.84;5012093;28;20044;-53
2022/04/20 06:29:58;;;;;;;4.53;4.13;;;;;;;7.99;100.00;162652.88;5014376;28;20482;-53
2022/04/20 06:32:24;;;;;;;8.70;4.85;;;;;;;8.12;100.00;162687.91;5012777;28;20042;-52
2022/04/20 06:34:50;;;;;;;8.02;3.75;;;;;;;8.22;100.00;162714.88;5014878;28;20124;-53
2022/04/20 06:37:17;;;;;;;5.55;3.75;;;;;;;8.31;100.00;162736.41;5012750;28;20132;-53
2022/04/20 06:39:43;;;;;;;3.60;3.30;;;;;;;8.47;100.00;162779.59;5014354;28;20041;-53
2022/04/20 06:42:08;;;;;;;4.15;3.80;;;;;;;8.57;100.00;162806.56;5012984;28;20041;-53
2022/04/20 06:44:33;;;;;;;4.60;3.50;;;;;;;8.70;100.00;162838.91;5013633;28;20026;-53
2022/04/20 06:46:59;;;;;;;5.30;3.90;;;;;;;8.83;100.00;162873.94;5012890;28;20513;-52
2022/04/20 06:49:24;;;;;;;9.30;5.07;;;;;;;8.94;100.00;162900.94;5014033;28;20018;-53
2022/04/20 07:00:02;;;;;;;9.88;5.82;;;;;;;9.66;100.00;163089.75;5013947;28;20065;-52
2022/04/20 07:02:28;;;;;;;6.05;3.83;;;;;;;9.95;100.00;163166.66;5012529;28;20061;-53
2022/04/20 07:04:53;;;;;;;5.88;4.50;;;;;;;10.63;100.00;163343.50;5018318;28;20485;-52
2022/04/20 07:07:18;;;;;;;4.72;3.85;;;;;;;11.21;100.00;163494.69;5026881;28;20382;-54
2022/04/20 07:09:44;;;;;;;6.45;3.67;;;;;;;12.55;100.00;163845.97;5032803;28;20048;-53
2022/04/20 07:12:09;;;;;;;3.90;3.20;;;;;;;13.98;100.00;164220.56;5024443;28;20048;-53
2022/04/20 07:14:34;;;;;;;5.20;3.13;;;;;;;15.12;100.00;164519.59;5013418;28;20469;-53
2022/04/20 07:17:02;;;;;;;4.75;3.50;;;;;;;15.80;89.34;164698.31;5014138;28;20386;-53
2022/04/20 07:19:27;;;;;;;4.22;2.95;;;;;;;16.39;85.13;164852.75;5032768;28;20026;-53
2022/04/20 07:21:53;;;;;;;4.47;3.00;;;;;;;16.90;79.32;164986.81;5031618;28;20052;-53
2022/04/20 07:24:18;;;;;;;12.95;3.67;;;;;;;17.01;76.89;165015.38;5033089;28;20370;-54
2022/04/20 07:26:43;;;;;;;5.90;3.10;;;;;;;17.11;70.89;165042.44;5031729;28;20048;-53
2022/04/20 07:29:09;;;;;;;4.32;3.15;;;;;;;17.48;70.59;165137.28;5032760;28;20024;-54
2022/04/20 07:31:34;;;;;;;8.48;3.83;;;;;;;17.28;69.10;165085.81;5031289;28;20045;-53
2022/04/20 07:33:59;;;;;;;2.95;2.63;;;;;;;18.08;69.19;165295.97;5032722;28;20566;-53
2022/04/20 07:36:25;;;;;;;5.45;2.90;;;;;;;18.01;68.21;165278.34;5030892;28;20033;-54
2022/04/20 07:38:50;;;;;;;6.45;3.33;;;;;;;18.24;66.98;165339.31;5033043;28;20029;-53
2022/04/20 07:41:16;;;;;;;4.75;2.90;;;;;;;18.33;66.43;165361.03;5031813;28;20034;-54
2022/04/20 07:43:41;;;;;;;5.80;2.80;;;;;;;17.95;65.93;165260.63;5032504;28;20469;-54
2022/04/20 07:46:07;;;;;;;7.60;3.03;;;;;;;17.70;64.04;165196.94;5031580;28;20116;-53
2022/04/20 07:48:32;;;;;;;5.25;3.42;;;;;;;17.72;63.67;165202.38;5032819;28;20017;-54
2022/04/20 07:51:00;;;;;;;3.47;2.85;;;;;;;17.61;63.95;165172.53;5031076;28;20496;-54
2022/04/20 07:53:26;;;;;;;;;;;;;;;16.98;67.71;165007.22;5033126;28;20025;-53
2022/04/20 07:55:51;;;;;;;8.90;3.70;;;;;;;17.31;64.95;165093.97;5031515;28;20043;-53
2022/04/20 07:58:17;;;;;;;4.45;3.90;;;;;;;16.95;66.79;164999.06;5032250;28;20535;-54
2022/04/20 08:00:42;;;;;;;6.55;2.90;;;;;;;18.10;68.26;165300.03;5031257;28;20034;-53
2022/04/20 08:03:12;;;;;;;4.90;3.28;;;;;;;17.93;62.69;165256.59;5032888;28;20029;-53
2022/04/20 08:05:38;;;;;;;5.68;3.25;;;;;;;17.53;66.11;165150.88;5031538;28;20029;-52
2022/04/20 08:08:04;;;;;;;4.30;3.00;;;;;;;18.00;64.14;165275.59;5032780;28;20476;-53
2022/04/20 08:10:30;;;;;;;9.73;3.67;;;;;;;18.01;62.08;165278.34;5032510;28;20104;-53
2022/04/20 08:12:55;;;;;;;4.70;2.90;;;;;;;17.91;67.90;165252.53;5030715;28;20404;-53
2022/04/20 08:15:20;;;;;;;2.90;2.63;;;;;;;17.84;64.96;165232.16;5032433;28;20033;-53
2022/04/20 08:17:46;;;;;;;6.30;2.90;;;;;;;17.60;65.89;165169.84;5030934;28;20088;-53
2022/04/20 08:20:11;;;;;;;6.97;3.33;;;;;;;17.53;64.52;165152.22;5032180;28;20070;-53
2022/04/20 08:22:42;;;;;;;4.35;2.65;;;;;;;16.77;66.69;164953.00;5030697;28;20033;-53
2022/04/20 08:25:08;;;;;;;3.60;2.42;;;;;;;16.91;62.79;164988.22;5032323;28;20045;-52
2022/04/20 08:27:34;;;;;;;5.40;3.10;;;;;;;17.24;63.54;165074.94;5030226;28;20121;-53
2022/04/20 08:29:59;;;;;;;4.00;2.85;;;;;;;17.80;66.20;165221.34;5031519;28;20021;-53
2022/04/20 08:32:24;;;;;;;6.82;2.75;;;;;;;18.01;65.44;165278.34;5030131;28;20080;-54
2022/04/20 08:34:51;;;;;;;6.38;4.25;;;;;;;17.95;64.41;165262.06;5031698;28;20092;-54
2022/04/20 08:37:16;;;;;;;5.22;3.13;;;;;;;18.36;65.58;165370.50;5030398;28;20315;-53
2022/04/20 08:39:42;;;;;;;3.83;3.22;;;;;;;18.17;62.46;165319.00;5031848;28;20263;-54
2022/04/20 08:42:11;;;;;;;9.57;3.33;;;;;;;17.60;61.15;165169.84;5030400;28;20049;-54
2022/04/20 08:44:43;;;;;;;4.78;2.85;;;;;;;17.86;66.13;165237.59;5031880;28;20025;-53
2022/04/20 08:47:12;;;;;;;5.93;2.78;;;;;;;18.20;61.00;165327.16;5030681;28;20099;-53
2022/04/20 08:49:43;;;;;;;4.38;2.97;;;;;;;18.12;60.95;165305.47;5031601;28;20366;-53
2022/04/20 08:54:56;;;;;;;3.67;3.13;;;;;;;18.81;62.18;165487.13;5031975;28;20031;-54
2022/04/20 08:57:23;;;;;;;8.35;2.90;;;;;;;17.96;62.10;165263.41;5029774;28;20107;-53
2022/04/20 08:59:50;;;;;;;9.70;3.10;;;;;;;17.91;62.29;165251.16;5031450;28;20028;-54
2022/04/20 09:02:24;;;;;;;5.40;3.08;;;;;;;17.61;62.72;165172.53;5029910;28;21018;-53
2022/04/20 09:04:50;;;;;;;4.38;3.38;;;;;;;17.25;61.71;165077.66;5031432;28;20429;-53
2022/04/20 09:07:16;;;;;;;6.53;3.05;;;;;;;17.48;68.49;165137.28;5030163;28;20034;-53
2022/04/20 09:09:41;;;;;;;3.08;2.70;;;;;;;16.87;61.74;164978.72;5031629;28;20021;-53
2022/04/20 09:12:16;;;;;;;6.30;3.15;;;;;;;16.48;63.67;164877.13;5029790;28;20041;-53
2022/04/20 09:14:43;;;;;;;6.30;3.55;;;;;;;16.01;63.66;164752.53;5031287;28;20477;-54
2022/04/20 09:17:13;;;;;;;3.37;3.07;;;;;;;16.64;64.75;164917.78;5029789;28;20041;-53
2022/04/20 09:19:39;;;;;;;6.45;3.10;;;;;;;17.08;66.25;165034.34;5026841;28;20409;-54
2022/04/20 09:22:29;;;;;;;4.63;3.53;;;;;;;18.21;64.43;165329.84;5028806;28;20044;-54
2022/04/20 09:25:06;;;;;;;5.82;2.65;;;;;;;17.91;64.53;165251.16;5011639;28;20116;-53
2022/04/20 09:27:34;;;;;;;5.43;2.85;;;;;;;17.81;60.74;165224.06;5028802;28;20038;-52
2022/04/20 09:30:01;;;;;;;4.60;2.27;;;;;;;18.00;62.81;165275.59;5031169;28;20060;-53
2022/04/20 09:32:37;;;;;;;4.93;3.17;;;;;;;18.05;63.32;165289.22;5029032;28;20125;-53
2022/04/20 09:35:06;;;;;;;5.10;3.30;;;;;;;17.25;63.37;165077.66;5030257;28;20033;-54
2022/04/20 09:37:32;;;;;;;4.50;2.72;;;;;;;16.78;63.08;164954.31;5028643;28;20046;-53
2022/04/20 09:39:59;;;;;;;5.68;3.47;;;;;;;17.20;64.84;165064.13;5030972;28;20021;-54
2022/04/20 09:42:24;;;;;;;7.57;4.07;;;;;;;17.59;62.12;165168.47;5028567;28;20061;-53
2022/04/20 09:45:00;;;;;;;7.32;2.92;;;;;;;17.62;63.45;165175.25;5030834;28;20032;-53
2022/04/20 09:50:30;;;;;;;5.43;2.90;;;;;;;18.11;60.79;165304.06;5031049;28;20076;-53
2022/04/20 09:52:59;;;;;;;5.13;2.85;;;;;;;18.52;60.06;165412.59;5029385;28;20038;-54
2022/04/20 09:55:32;;;;;;;5.60;2.83;;;;;;;18.73;61.75;165465.47;5030316;28;20053;-54
2022/04/20 09:58:13;;;;;;;5.60;2.58;;;;;;;19.17;61.44;165582.19;5029393;28;20038;-53
2022/04/20 10:00:41;;;;;;;4.25;2.53;;;;;;;19.27;61.93;165607.94;5029123;28;20046;-53
2022/04/20 10:03:07;;;;;;;4.03;2.63;;;;;;;19.24;62.30;165601.16;5030112;28;20028;-54
2022/04/20 10:05:32;;;;;;;4.68;3.25;;;;;;;19.14;58.39;165574.03;5030577;28;20025;-53
2022/04/20 10:07:59;;;;;;;4.03;3.20;;;;;;;18.93;60.55;165519.78;5029378;28;20038;-53
2022/04/20 10:10:26;;;;;;;3.38;2.58;;;;;;;18.48;56.38;165400.38;5030537;28;20052;-53
2022/04/20 10:12:54;;;;;;;4.80;2.78;;;;;;;18.57;59.12;165424.78;5029055;28;20042;-53
2022/04/20 10:18:09;;;;;;;5.07;2.78;;;;;;;18.61;59.96;165435.63;5029116;28;20508;-53
2022/04/20 10:20:34;;;;;;;9.18;3.45;;;;;;;18.25;62.56;165340.72;5029701;28;20026;-53
2022/04/20 10:23:02;;;;;;;4.78;2.47;;;;;;;18.58;63.16;165427.47;5029227;28;20045;-53
2022/04/20 10:25:28;;;;;;;3.95;2.80;;;;;;;19.00;58.83;165538.75;5029917;28;20042;-52
2022/04/20 10:28:12;;;;;;;5.43;2.58;;;;;;;18.30;58.42;165352.91;5030638;28;20042;-54
2022/04/20 10:31:13;;;;;;;3.72;2.97;;;;;;;17.82;59.43;165228.13;5034589;28;20021;-52
2022/04/20 10:33:41;;;;;;;5.68;3.65;;;;;;;18.49;59.03;165403.09;5003256;28;20115;-53
2022/04/20 10:36:11;;;;;;;3.08;2.47;;;;;;;18.46;61.27;165394.94;5016233;28;20024;-54
2022/04/20 10:38:38;;;;;;;6.38;2.78;;;;;;;19.05;58.45;165549.59;5028185;28;20038;-54
2022/04/20 10:41:11;;;;;;;5.63;2.28;;;;;;;18.81;56.05;165487.13;5029686;28;20516;-54
2022/04/20 10:43:44;;;;;;;4.45;3.00;;;;;;;18.70;57.22;165458.66;5028778;28;20041;-54
2022/04/20 10:46:18;;;;;;;5.13;3.00;;;;;;;18.13;59.55;165308.19;5030630;28;20021;-54
2022/04/20 10:48:48;;;;;;;3.08;2.75;;;;;;;18.40;64.80;165380.00;5028696;28;20133;-54
2022/04/20 10:51:16;;;;;;;4.78;2.85;;;;;;;18.34;59.77;165365.13;5030612;28;20075;-54
2022/04/20 10:53:48;;;;;;;7.28;3.10;;;;;;;18.29;61.60;165351.53;5031560;28;20053;-54
2022/04/20 10:56:14;;;;;;;6.90;2.88;;;;;;;18.15;58.35;165313.56;5034053;28;20373;-53
2022/04/20 10:58:51;;;;;;;7.68;3.03;;;;;;;18.70;61.43;165460.03;5032265;28;20092;-54
2022/04/20 11:01:16;;;;;;;6.50;3.15;;;;;;;18.39;61.97;165378.66;5033499;28;20199;-54
2022/04/20 11:04:07;;;;;;;12.40;2.97;;;;;;;18.20;57.74;165327.16;5031602;28;20041;-54
2022/04/20 11:07:00;;;;;;;3.80;3.28;;;;;;;18.21;58.93;165329.84;5033478;28;20021;-54
2022/04/20 11:09:40;;;;;;;3.83;2.28;;;;;;;18.59;57.92;165430.19;5031905;28;20140;-54
2022/04/20 11:21:06;;;;;;;8.15;3.65;;;;;;;18.64;55.96;165443.78;5033614;28;20079;-54
2022/04/20 11:23:46;;;;;;;;;;;;;;;18.66;57.80;165447.84;5032031;28;20158;-54
2022/04/20 11:26:12;;;;;;;4.05;2.10;;;;;;;17.95;53.22;165262.06;5033393;28;19916;-54
2022/04/20 11:28:41;;;;;;;2.63;1.75;;;;;;;17.91;55.49;165252.53;5031822;28;20460;-54
2022/04/20 11:31:06;;;;;;;6.80;2.83;;;;;;;17.68;55.57;165190.16;5033387;28;20028;-54
2022/04/20 11:33:33;;;;;;;3.67;2.35;;;;;;;18.01;56.04;165278.34;5031443;28;20033;-54
2022/04/20 11:35:58;;;;;;;10.30;2.47;;;;;;;17.16;55.05;165054.66;5028910;28;20064;-54
2022/04/20 11:38:36;;;;;;;2.88;2.08;;;;;;;17.75;58.30;165210.53;5031102;28;20509;-54
2022/04/20 11:41:02;;;;;;;5.07;1.85;;;;;;;17.15;54.41;165051.94;5033051;28;20025;-54
2022/04/20 11:43:27;;;;;;;3.65;2.45;;;;;;;17.36;59.97;165107.50;5031191;28;20410;-53
2022/04/20 11:45:53;;;;;;;2.67;2.15;;;;;;;17.87;62.95;165240.31;5032715;28;20038;-53
2022/04/20 11:48:20;;;;;;;2.78;2.33;;;;;;;17.68;54.27;165191.56;5030645;28;20029;-54
2022/04/20 11:50:57;;;;;;;4.35;2.67;;;;;;;17.66;55.29;165186.13;5033033;28;20041;-53
2022/04/20 11:53:38;;;;;;;2.22;1.98;;;;;;;17.90;56.30;165248.47;5011775;28;20096;-54
2022/04/20 11:56:07;;;;;;;2.22;1.95;;;;;;;17.98;62.06;165268.84;5032726;28;20037;-54
2022/04/20 11:58:32;;;;;;;;;;;;;;;17.95;55.41;165262.06;5031486;28;20044;-54
2022/04/20 12:01:03;;;;;;;2.05;1.77;;;;;;;17.51;55.22;165145.44;5031681;28;20340;-54